sensor_id;sensor_type;location;lat;lon;timestamp;P1;durP1;ratioP1;P2;durP2;ratioP2
20931;SDS011;10625;49.054;9.348;2022-10-16T05:50:09;11.37;;;3.70;;
20931;SDS011;10625;49.054;9.348;2022-10-16T05:52:36;7.37;;;3.40;;
20931;SDS011;10625;49.054;9.348;2022-10-16T05:55:03;12.33;;;3.77;;
20931;SDS011;10625;49.054;9.348;2022-10-16T05:57:31;5.17;;;2.00;;
20931;SDS011;10625;49.054;9.348;2022-10-16T05:59:58;10.40;;;4.00;;
20931;SDS011;10625;49.054;9.348;2022-10-16T06:02:25;15.77;;;4.30;;
20931;SDS011;10625;49.054;9.348;2022-10-16T06:04:53;13.60;;;3.40;;
20931;SDS011;10625;49.054;9.348;2022-10-16T06:07:20;4.83;;;2.60;;
20931;SDS011;10625;49.054;9.348;2022-10-16T06:09:52;7.50;;;2.97;;
20931;SDS011;10625;49.054;9.348;2022-10-16T06:12:16;8.90;;;3.80;;
20931;SDS011;10625;49.054;9.348;2022-10-16T06:14:44;14.40;;;4.13;;
20931;SDS011;10625;49.054;9.348;2022-10-16T06:17:13;13.93;;;4.07;;
20931;SDS011;10625;49.054;9.348;2022-10-16T06:19:40;8.00;;;2.90;;
20931;SDS011;10625;49.054;9.348;2022-10-16T06:22:08;9.27;;;3.83;;
20931;SDS011;10625;49.054;9.348;2022-10-16T06:24:35;8.70;;;4.27;;
20931;SDS011;10625;49.054;9.348;2022-10-16T06:27:03;7.20;;;2.73;;
20931;SDS011;10625;49.054;9.348;2022-10-16T06:29:30;11.20;;;4.13;;
20931;SDS011;10625;49.054;9.348;2022-10-16T06:31:57;10.50;;;4.50;;
20931;SDS011;10625;49.054;9.348;2022-10-16T06:34:25;13.07;;;4.20;;
20931;SDS011;10625;49.054;9.348;2022-10-16T06:36:52;17.90;;;4.27;;
20931;SDS011;10625;49.054;9.348;2022-10-16T06:39:19;4.90;;;2.70;;
20931;SDS011;10625;49.054;9.348;2022-10-16T06:41:46;6.37;;;2.10;;
20931;SDS011;10625;49.054;9.348;2022-10-16T06:44:14;14.40;;;3.87;;
20931;SDS011;10625;49.054;9.348;2022-10-16T06:46:41;6.87;;;3.13;;
20931;SDS011;10625;49.054;9.348;2022-10-16T06:49:08;8.87;;;3.13;;
20931;SDS011;10625;49.054;9.348;2022-10-16T06:51:36;12.03;;;4.20;;
20931;SDS011;10625;49.054;9.348;2022-10-16T06:54:04;6.13;;;3.70;;
20931;SDS011;10625;49.054;9.348;2022-10-16T06:56:32;5.53;;;3.37;;
20931;SDS011;10625;49.054;9.348;2022-10-16T06:59:00;9.63;;;3.40;;
20931;SDS011;10625;49.054;9.348;2022-10-16T07:01:27;9.00;;;3.67;;
20931;SDS011;10625;49.054;9.348;2022-10-16T07:03:55;9.53;;;3.33;;
20931;SDS011;10625;49.054;9.348;2022-10-16T07:06:23;10.43;;;3.07;;
20931;SDS011;10625;49.054;9.348;2022-10-16T07:08:51;8.03;;;2.60;;
20931;SDS011;10625;49.054;9.348;2022-10-16T07:13:15;12.23;;;3.70;;
20931;SDS011;10625;49.054;9.348;2022-10-16T07:15:43;7.10;;;3.00;;
20931;SDS011;10625;49.054;9.348;2022-10-16T07:18:10;6.07;;;2.90;;
20931;SDS011;10625;49.054;9.348;2022-10-16T07:20:37;3.43;;;2.03;;
20931;SDS011;10625;49.054;9.348;2022-10-16T07:23:04;12.30;;;2.97;;
20931;SDS011;10625;49.054;9.348;2022-10-16T07:25:32;9.00;;;2.93;;
20931;SDS011;10625;49.054;9.348;2022-10-16T07:27:59;6.33;;;1.93;;
20931;SDS011;10625;49.054;9.348;2022-10-16T07:30:26;7.40;;;3.07;;
20931;SDS011;10625;49.054;9.348;2022-10-16T07:32:53;3.60;;;2.40;;
20931;SDS011;10625;49.054;9.348;2022-10-16T07:35:21;4.87;;;2.20;;
20931;SDS011;10625;49.054;9.348;2022-10-16T07:37:48;8.53;;;3.13;;
20931;SDS011;10625;49.054;9.348;2022-10-16T07:40:15;4.47;;;2.90;;
20931;SDS011;10625;49.054;9.348;2022-10-16T07:42:43;7.27;;;3.00;;
20931;SDS011;10625;49.054;9.348;2022-10-16T07:45:10;5.67;;;2.87;;
20931;SDS011;10625;49.054;9.348;2022-10-16T07:47:38;4.10;;;2.80;;
20931;SDS011;10625;49.054;9.348;2022-10-16T07:50:05;3.47;;;2.27;;
20931;SDS011;10625;49.054;9.348;2022-10-16T07:52:32;3.30;;;2.20;;
20931;SDS011;10625;49.054;9.348;2022-10-16T07:54:59;6.13;;;2.20;;
20931;SDS011;10625;49.054;9.348;2022-10-16T07:57:27;4.53;;;1.80;;
20931;SDS011;10625;49.054;9.348;2022-10-16T07:59:54;5.73;;;2.50;;
20931;SDS011;10625;49.054;9.348;2022-10-16T08:02:21;5.87;;;2.70;;
20931;SDS011;10625;49.054;9.348;2022-10-16T08:04:48;8.13;;;2.30;;
20931;SDS011;10625;49.054;9.348;2022-10-16T08:07:16;4.50;;;2.40;;
20931;SDS011;10625;49.054;9.348;2022-10-16T08:09:43;6.20;;;2.67;;
20931;SDS011;10625;49.054;9.348;2022-10-16T08:12:10;6.57;;;2.43;;
20931;SDS011;10625;49.054;9.348;2022-10-16T08:14:38;2.17;;;1.63;;
20931;SDS011;10625;49.054;9.348;2022-10-16T08:17:05;4.27;;;2.33;;
20931;SDS011;10625;49.054;9.348;2022-10-16T08:19:32;8.87;;;2.10;;
20931;SDS011;10625;49.054;9.348;2022-10-16T08:22:00;4.83;;;2.43;;
20931;SDS011;10625;49.054;9.348;2022-10-16T08:24:28;5.27;;;2.43;;
20931;SDS011;10625;49.054;9.348;2022-10-16T08:26:56;11.27;;;2.00;;
20931;SDS011;10625;49.054;9.348;2022-10-16T08:29:24;1.93;;;1.80;;
20931;SDS011;10625;49.054;9.348;2022-10-16T08:31:51;3.90;;;1.57;;
20931;SDS011;10625;49.054;9.348;2022-10-16T08:34:18;5.10;;;1.67;;
20931;SDS011;10625;49.054;9.348;2022-10-16T08:36:46;5.37;;;1.73;;
20931;SDS011;10625;49.054;9.348;2022-10-16T08:39:13;5.67;;;1.57;;
20931;SDS011;10625;49.054;9.348;2022-10-16T08:49:30;4.80;;;1.40;;
20931;SDS011;10625;49.054;9.348;2022-10-16T08:51:57;2.90;;;1.70;;
20931;SDS011;10625;49.054;9.348;2022-10-16T08:54:28;2.83;;;1.60;;
20931;SDS011;10625;49.054;9.348;2022-10-16T08:56:56;3.40;;;1.80;;
20931;SDS011;10625;49.054;9.348;2022-10-16T08:59:23;3.90;;;1.50;;
20931;SDS011;10625;49.054;9.348;2022-10-16T09:01:50;3.27;;;1.40;;
20931;SDS011;10625;49.054;9.348;2022-10-16T09:06:55;3.47;;;1.47;;
20931;SDS011;10625;49.054;9.348;2022-10-16T09:22:55;1.23;;;1.13;;
20931;SDS011;10625;49.054;9.348;2022-10-16T09:25:22;2.90;;;1.30;;
20931;SDS011;10625;49.054;9.348;2022-10-16T09:27:51;2.60;;;1.43;;
20931;SDS011;10625;49.054;9.348;2022-10-16T09:30:19;2.87;;;1.17;;
20931;SDS011;10625;49.054;9.348;2022-10-16T09:32:48;3.40;;;1.20;;
20931;SDS011;10625;49.054;9.348;2022-10-16T09:35:22;3.13;;;1.50;;
20931;SDS011;10625;49.054;9.348;2022-10-16T09:37:50;4.30;;;1.40;;
20931;SDS011;10625;49.054;9.348;2022-10-16T09:40:31;2.50;;;1.00;;
20931;SDS011;10625;49.054;9.348;2022-10-16T09:43:19;5.87;;;1.37;;
20931;SDS011;10625;49.054;9.348;2022-10-16T09:45:55;2.20;;;1.27;;
20931;SDS011;10625;49.054;9.348;2022-10-16T09:48:22;1.43;;;0.97;;
20931;SDS011;10625;49.054;9.348;2022-10-16T09:50:57;1.97;;;1.20;;
20931;SDS011;10625;49.054;9.348;2022-10-16T09:53:26;2.90;;;1.03;;
20931;SDS011;10625;49.054;9.348;2022-10-16T09:55:53;3.23;;;1.20;;
20931;SDS011;10625;49.054;9.348;2022-10-16T09:58:21;2.30;;;1.10;;
20931;SDS011;10625;49.054;9.348;2022-10-16T10:02:53;1.53;;;1.00;;
20931;SDS011;10625;49.054;9.348;2022-10-16T10:05:27;2.43;;;1.17;;
20931;SDS011;10625;49.054;9.348;2022-10-16T10:07:59;3.70;;;1.30;;
20931;SDS011;10625;49.054;9.348;2022-10-16T10:10:28;3.60;;;1.40;;
20931;SDS011;10625;49.054;9.348;2022-10-16T10:12:52;1.10;;;1.00;;
20931;SDS011;10625;49.054;9.348;2022-10-16T10:15:19;7.03;;;5.10;;
20931;SDS011;10625;49.054;9.348;2022-10-16T10:18:57;3.53;;;2.20;;
20931;SDS011;10625;49.054;9.348;2022-10-16T10:21:17;1.23;;;0.90;;
20931;SDS011;10625;49.054;9.348;2022-10-16T10:23:44;2.93;;;1.33;;
20931;SDS011;10625;49.054;9.348;2022-10-16T10:26:15;1.50;;;1.07;;
20931;SDS011;10625;49.054;9.348;2022-10-16T10:34:22;1.13;;;1.03;;
20931;SDS011;10625;49.054;9.348;2022-10-16T10:36:47;3.63;;;1.30;;
20931;SDS011;10625;49.054;9.348;2022-10-16T10:39:19;2.97;;;1.30;;
20931;SDS011;10625;49.054;9.348;2022-10-16T10:44:50;2.93;;;1.60;;
20931;SDS011;10625;49.054;9.348;2022-10-16T10:52:39;1.77;;;1.10;;
20931;SDS011;10625;49.054;9.348;2022-10-16T10:55:14;3.97;;;1.40;;
20931;SDS011;10625;49.054;9.348;2022-10-16T10:57:41;3.63;;;1.50;;
20931;SDS011;10625;49.054;9.348;2022-10-16T11:00:14;2.47;;;1.30;;
20931;SDS011;10625;49.054;9.348;2022-10-16T11:02:41;5.63;;;1.83;;
20931;SDS011;10625;49.054;9.348;2022-10-16T11:07:52;3.93;;;1.40;;
20931;SDS011;10625;49.054;9.348;2022-10-16T11:10:25;4.93;;;1.17;;
20931;SDS011;10625;49.054;9.348;2022-10-16T11:12:54;5.43;;;1.40;;
20931;SDS011;10625;49.054;9.348;2022-10-16T11:15:24;2.73;;;1.47;;
20931;SDS011;10625;49.054;9.348;2022-10-16T11:17:52;2.17;;;1.30;;
20931;SDS011;10625;49.054;9.348;2022-10-16T11:20:20;2.13;;;1.30;;
20931;SDS011;10625;49.054;9.348;2022-10-16T11:22:53;2.73;;;1.40;;
20931;SDS011;10625;49.054;9.348;2022-10-16T11:25:21;4.23;;;1.40;;
20931;SDS011;10625;49.054;9.348;2022-10-16T11:28:13;2.17;;;1.10;;
20931;SDS011;10625;49.054;9.348;2022-10-16T11:30:42;2.93;;;1.50;;
20931;SDS011;10625;49.054;9.348;2022-10-16T11:35:48;3.30;;;1.20;;
20931;SDS011;10625;49.054;9.348;2022-10-16T11:38:19;2.80;;;1.40;;
20931;SDS011;10625;49.054;9.348;2022-10-16T11:40:41;3.13;;;1.23;;
20931;SDS011;10625;49.054;9.348;2022-10-16T11:43:23;4.37;;;1.20;;
20931;SDS011;10625;49.054;9.348;2022-10-16T11:45:51;3.23;;;1.37;;
20931;SDS011;10625;49.054;9.348;2022-10-16T11:54:51;2.30;;;1.47;;
20931;SDS011;10625;49.054;9.348;2022-10-16T11:56:28;3.87;;;1.50;;
20931;SDS011;10625;49.054;9.348;2022-10-16T11:59:02;9.07;;;1.50;;
20931;SDS011;10625;49.054;9.348;2022-10-16T12:04:16;3.10;;;1.60;;
20931;SDS011;10625;49.054;9.348;2022-10-16T12:06:44;1.60;;;1.50;;
20931;SDS011;10625;49.054;9.348;2022-10-16T12:09:15;2.30;;;1.60;;
20931;SDS011;10625;49.054;9.348;2022-10-16T12:11:40;1.33;;;1.00;;
20931;SDS011;10625;49.054;9.348;2022-10-16T12:16:52;1.63;;;1.27;;
20931;SDS011;10625;49.054;9.348;2022-10-16T12:19:20;2.07;;;1.20;;
20931;SDS011;10625;49.054;9.348;2022-10-16T12:21:48;2.57;;;1.20;;
20931;SDS011;10625;49.054;9.348;2022-10-16T12:24:20;2.43;;;1.17;;
20931;SDS011;10625;49.054;9.348;2022-10-16T12:26:48;3.20;;;1.20;;
20931;SDS011;10625;49.054;9.348;2022-10-16T12:32:03;2.20;;;1.40;;
20931;SDS011;10625;49.054;9.348;2022-10-16T12:34:34;2.73;;;1.20;;
20931;SDS011;10625;49.054;9.348;2022-10-16T12:37:13;3.93;;;1.60;;
20931;SDS011;10625;49.054;9.348;2022-10-16T12:39:40;2.47;;;1.40;;
20931;SDS011;10625;49.054;9.348;2022-10-16T12:42:24;3.43;;;1.30;;
20931;SDS011;10625;49.054;9.348;2022-10-16T12:44:51;2.40;;;1.30;;
20931;SDS011;10625;49.054;9.348;2022-10-16T12:49:53;2.70;;;1.40;;
20931;SDS011;10625;49.054;9.348;2022-10-16T12:54:56;1.53;;;1.30;;
20931;SDS011;10625;49.054;9.348;2022-10-16T13:00:10;2.27;;;1.10;;
20931;SDS011;10625;49.054;9.348;2022-10-16T13:05:26;5.37;;;1.47;;
20931;SDS011;10625;49.054;9.348;2022-10-16T13:08:02;3.10;;;1.30;;
20931;SDS011;10625;49.054;9.348;2022-10-16T13:10:28;3.67;;;1.43;;
20931;SDS011;10625;49.054;9.348;2022-10-16T13:18:19;1.07;;;0.97;;
20931;SDS011;10625;49.054;9.348;2022-10-16T13:23:23;2.40;;;1.53;;
20931;SDS011;10625;49.054;9.348;2022-10-16T13:28:27;3.63;;;1.53;;
20931;SDS011;10625;49.054;9.348;2022-10-16T13:30:58;4.23;;;1.60;;
20931;SDS011;10625;49.054;9.348;2022-10-16T13:35:58;3.60;;;1.43;;
20931;SDS011;10625;49.054;9.348;2022-10-16T13:38:27;6.93;;;1.73;;
20931;SDS011;10625;49.054;9.348;2022-10-16T13:40:55;6.93;;;1.30;;
20931;SDS011;10625;49.054;9.348;2022-10-16T13:43:24;4.40;;;1.67;;
20931;SDS011;10625;49.054;9.348;2022-10-16T13:45:52;4.20;;;1.50;;
20931;SDS011;10625;49.054;9.348;2022-10-16T13:48:20;6.27;;;1.60;;
20931;SDS011;10625;49.054;9.348;2022-10-16T13:50:57;5.47;;;1.63;;
20931;SDS011;10625;49.054;9.348;2022-10-16T13:53:16;3.37;;;1.47;;
20931;SDS011;10625;49.054;9.348;2022-10-16T13:55:43;4.57;;;1.70;;
20931;SDS011;10625;49.054;9.348;2022-10-16T13:58:16;9.10;;;1.90;;
20931;SDS011;10625;49.054;9.348;2022-10-16T14:00:52;4.80;;;1.50;;
20931;SDS011;10625;49.054;9.348;2022-10-16T14:03:14;7.17;;;1.83;;
20931;SDS011;10625;49.054;9.348;2022-10-16T14:05:44;7.37;;;1.97;;
20931;SDS011;10625;49.054;9.348;2022-10-16T14:08:10;6.97;;;1.77;;
20931;SDS011;10625;49.054;9.348;2022-10-16T14:10:38;5.93;;;1.93;;
20931;SDS011;10625;49.054;9.348;2022-10-16T14:13:06;5.70;;;1.80;;
20931;SDS011;10625;49.054;9.348;2022-10-16T14:15:34;9.57;;;1.63;;
20931;SDS011;10625;49.054;9.348;2022-10-16T14:18:02;7.30;;;1.67;;
20931;SDS011;10625;49.054;9.348;2022-10-16T14:20:31;3.93;;;1.67;;
20931;SDS011;10625;49.054;9.348;2022-10-16T14:23:04;6.47;;;1.80;;
20931;SDS011;10625;49.054;9.348;2022-10-16T14:25:29;8.23;;;1.93;;
20931;SDS011;10625;49.054;9.348;2022-10-16T14:28:19;3.03;;;1.60;;
20931;SDS011;10625;49.054;9.348;2022-10-16T14:30:26;5.27;;;1.83;;
20931;SDS011;10625;49.054;9.348;2022-10-16T14:32:55;6.13;;;1.97;;
20931;SDS011;10625;49.054;9.348;2022-10-16T14:35:27;5.80;;;1.80;;
20931;SDS011;10625;49.054;9.348;2022-10-16T14:37:54;10.20;;;2.40;;
20931;SDS011;10625;49.054;9.348;2022-10-16T14:40:26;5.27;;;2.40;;
20931;SDS011;10625;49.054;9.348;2022-10-16T14:42:54;9.33;;;1.70;;
20931;SDS011;10625;49.054;9.348;2022-10-16T14:45:22;16.03;;;2.40;;
20931;SDS011;10625;49.054;9.348;2022-10-16T14:47:52;6.80;;;1.80;;
20931;SDS011;10625;49.054;9.348;2022-10-16T14:50:19;10.83;;;1.93;;
20931;SDS011;10625;49.054;9.348;2022-10-16T14:52:46;5.53;;;2.23;;
20931;SDS011;10625;49.054;9.348;2022-10-16T14:55:13;8.93;;;2.00;;
20931;SDS011;10625;49.054;9.348;2022-10-16T14:57:42;8.27;;;1.90;;
20931;SDS011;10625;49.054;9.348;2022-10-16T15:00:19;3.30;;;1.97;;
20931;SDS011;10625;49.054;9.348;2022-10-16T15:02:38;7.73;;;1.83;;
20931;SDS011;10625;49.054;9.348;2022-10-16T15:05:21;8.40;;;2.17;;
20931;SDS011;10625;49.054;9.348;2022-10-16T15:07:44;9.23;;;2.00;;
20931;SDS011;10625;49.054;9.348;2022-10-16T15:10:12;11.13;;;2.53;;
20931;SDS011;10625;49.054;9.348;2022-10-16T15:12:40;13.83;;;2.20;;
20931;SDS011;10625;49.054;9.348;2022-10-16T15:17:52;9.27;;;2.10;;
20931;SDS011;10625;49.054;9.348;2022-10-16T15:20:22;7.73;;;1.83;;
20931;SDS011;10625;49.054;9.348;2022-10-16T15:22:49;5.30;;;1.83;;
20931;SDS011;10625;49.054;9.348;2022-10-16T15:25:27;13.77;;;2.37;;
20931;SDS011;10625;49.054;9.348;2022-10-16T15:27:54;8.67;;;2.10;;
20931;SDS011;10625;49.054;9.348;2022-10-16T15:30:22;7.33;;;2.13;;
20931;SDS011;10625;49.054;9.348;2022-10-16T15:32:49;5.00;;;1.93;;
20931;SDS011;10625;49.054;9.348;2022-10-16T15:35:16;15.00;;;2.13;;
20931;SDS011;10625;49.054;9.348;2022-10-16T15:37:43;16.40;;;2.77;;
20931;SDS011;10625;49.054;9.348;2022-10-16T15:40:11;17.33;;;3.30;;
20931;SDS011;10625;49.054;9.348;2022-10-16T15:42:38;9.00;;;2.47;;
20931;SDS011;10625;49.054;9.348;2022-10-16T15:45:05;12.57;;;2.77;;
20931;SDS011;10625;49.054;9.348;2022-10-16T15:47:33;9.60;;;2.70;;
20931;SDS011;10625;49.054;9.348;2022-10-16T15:50:00;12.13;;;2.90;;
20931;SDS011;10625;49.054;9.348;2022-10-16T15:52:28;13.97;;;3.20;;
20931;SDS011;10625;49.054;9.348;2022-10-16T15:54:57;14.53;;;2.67;;
20931;SDS011;10625;49.054;9.348;2022-10-16T15:57:24;17.37;;;2.63;;
20931;SDS011;10625;49.054;9.348;2022-10-16T15:59:52;19.30;;;3.43;;
20931;SDS011;10625;49.054;9.348;2022-10-16T16:02:19;18.30;;;3.10;;
20931;SDS011;10625;49.054;9.348;2022-10-16T16:04:46;10.33;;;2.53;;
20931;SDS011;10625;49.054;9.348;2022-10-16T16:07:14;4.93;;;2.47;;
20931;SDS011;10625;49.054;9.348;2022-10-16T16:09:41;12.00;;;3.00;;
20931;SDS011;10625;49.054;9.348;2022-10-16T16:12:10;13.33;;;2.60;;
20931;SDS011;10625;49.054;9.348;2022-10-16T16:14:37;14.43;;;2.80;;
20931;SDS011;10625;49.054;9.348;2022-10-16T16:17:04;6.80;;;2.50;;
20931;SDS011;10625;49.054;9.348;2022-10-16T16:19:32;14.17;;;3.10;;
20931;SDS011;10625;49.054;9.348;2022-10-16T16:22:00;14.83;;;3.33;;
20931;SDS011;10625;49.054;9.348;2022-10-16T16:24:27;12.20;;;2.90;;
20931;SDS011;10625;49.054;9.348;2022-10-16T16:26:55;21.77;;;3.10;;
20931;SDS011;10625;49.054;9.348;2022-10-16T16:29:22;6.60;;;2.20;;
20931;SDS011;10625;49.054;9.348;2022-10-16T16:31:49;12.60;;;2.97;;
20931;SDS011;10625;49.054;9.348;2022-10-16T16:34:18;12.07;;;2.80;;
20931;SDS011;10625;49.054;9.348;2022-10-16T16:36:45;10.30;;;3.20;;
20931;SDS011;10625;49.054;9.348;2022-10-16T16:39:13;13.10;;;3.27;;
20931;SDS011;10625;49.054;9.348;2022-10-16T16:41:40;7.87;;;2.33;;
20931;SDS011;10625;49.054;9.348;2022-10-16T16:44:08;9.57;;;3.00;;
20931;SDS011;10625;49.054;9.348;2022-10-16T16:46:36;5.53;;;3.00;;
20931;SDS011;10625;49.054;9.348;2022-10-16T16:49:03;9.20;;;3.03;;
20931;SDS011;10625;49.054;9.348;2022-10-16T16:51:30;13.60;;;3.73;;
20931;SDS011;10625;49.054;9.348;2022-10-16T16:53:58;11.70;;;3.77;;
20931;SDS011;10625;49.054;9.348;2022-10-16T16:56:25;8.07;;;3.00;;
20931;SDS011;10625;49.054;9.348;2022-10-16T16:58:53;12.47;;;2.97;;
20931;SDS011;10625;49.054;9.348;2022-10-16T17:01:22;13.47;;;3.43;;
20931;SDS011;10625;49.054;9.348;2022-10-16T17:03:50;10.07;;;3.57;;
20931;SDS011;10625;49.054;9.348;2022-10-16T17:06:22;10.20;;;4.27;;
20931;SDS011;10625;49.054;9.348;2022-10-16T17:08:50;18.83;;;4.13;;
20931;SDS011;10625;49.054;9.348;2022-10-16T17:11:18;15.03;;;4.20;;
20931;SDS011;10625;49.054;9.348;2022-10-16T17:13:46;9.20;;;3.67;;
20931;SDS011;10625;49.054;9.348;2022-10-16T17:16:13;7.73;;;2.73;;
20931;SDS011;10625;49.054;9.348;2022-10-16T17:18:41;9.17;;;2.87;;
20931;SDS011;10625;49.054;9.348;2022-10-16T17:21:08;13.43;;;3.80;;
20931;SDS011;10625;49.054;9.348;2022-10-16T17:23:36;7.80;;;3.37;;
20931;SDS011;10625;49.054;9.348;2022-10-16T17:26:05;8.57;;;3.77;;
20931;SDS011;10625;49.054;9.348;2022-10-16T17:28:32;14.60;;;4.20;;
20931;SDS011;10625;49.054;9.348;2022-10-16T17:31:06;12.67;;;3.50;;
20931;SDS011;10625;49.054;9.348;2022-10-16T17:33:33;12.37;;;4.00;;
20931;SDS011;10625;49.054;9.348;2022-10-16T17:36:01;10.43;;;4.43;;
20931;SDS011;10625;49.054;9.348;2022-10-16T17:38:28;8.67;;;4.07;;
20931;SDS011;10625;49.054;9.348;2022-10-16T17:40:56;13.37;;;4.10;;
20931;SDS011;10625;49.054;9.348;2022-10-16T17:43:23;6.80;;;3.80;;
20931;SDS011;10625;49.054;9.348;2022-10-16T17:45:50;15.73;;;3.83;;
20931;SDS011;10625;49.054;9.348;2022-10-16T17:48:17;11.37;;;3.90;;
20931;SDS011;10625;49.054;9.348;2022-10-16T17:50:45;17.80;;;3.70;;
20931;SDS011;10625;49.054;9.348;2022-10-16T17:53:12;15.97;;;4.17;;
20931;SDS011;10625;49.054;9.348;2022-10-16T17:55:40;11.13;;;3.50;;
20931;SDS011;10625;49.054;9.348;2022-10-16T17:58:08;8.27;;;3.87;;
20931;SDS011;10625;49.054;9.348;2022-10-16T18:00:35;9.67;;;2.90;;
20931;SDS011;10625;49.054;9.348;2022-10-16T18:03:03;9.73;;;3.73;;
20931;SDS011;10625;49.054;9.348;2022-10-16T18:05:30;12.90;;;4.50;;
20931;SDS011;10625;49.054;9.348;2022-10-16T18:07:57;15.17;;;6.20;;
20931;SDS011;10625;49.054;9.348;2022-10-16T18:10:24;10.87;;;3.43;;
20931;SDS011;10625;49.054;9.348;2022-10-16T18:14:04;11.80;;;3.33;;
20931;SDS011;10625;49.054;9.348;2022-10-16T18:16:31;22.43;;;4.20;;
20931;SDS011;10625;49.054;9.348;2022-10-16T18:19:01;12.07;;;4.47;;
20931;SDS011;10625;49.054;9.348;2022-10-16T18:21:28;9.87;;;4.27;;
20931;SDS011;10625;49.054;9.348;2022-10-16T18:23:56;13.33;;;4.90;;
20931;SDS011;10625;49.054;9.348;2022-10-16T18:26:24;12.00;;;4.83;;
20931;SDS011;10625;49.054;9.348;2022-10-16T18:28:52;11.17;;;4.00;;
20931;SDS011;10625;49.054;9.348;2022-10-16T18:31:20;16.93;;;5.03;;
20931;SDS011;10625;49.054;9.348;2022-10-16T18:33:48;14.17;;;5.00;;
20931;SDS011;10625;49.054;9.348;2022-10-16T18:36:17;9.00;;;3.23;;
20931;SDS011;10625;49.054;9.348;2022-10-16T18:38:45;14.57;;;5.53;;
20931;SDS011;10625;49.054;9.348;2022-10-16T18:41:12;14.50;;;5.00;;
20931;SDS011;10625;49.054;9.348;2022-10-16T18:43:39;12.53;;;5.37;;
20931;SDS011;10625;49.054;9.348;2022-10-16T18:46:08;12.77;;;5.10;;
20931;SDS011;10625;49.054;9.348;2022-10-16T18:48:36;10.93;;;4.50;;
20931;SDS011;10625;49.054;9.348;2022-10-16T18:51:16;13.27;;;5.83;;
20931;SDS011;10625;49.054;9.348;2022-10-16T18:53:45;13.50;;;6.20;;
20931;SDS011;10625;49.054;9.348;2022-10-16T18:56:12;14.70;;;5.97;;
20931;SDS011;10625;49.054;9.348;2022-10-16T18:58:41;15.80;;;6.27;;
20931;SDS011;10625;49.054;9.348;2022-10-16T19:01:10;15.23;;;6.47;;
20931;SDS011;10625;49.054;9.348;2022-10-16T19:03:38;10.67;;;3.87;;
20931;SDS011;10625;49.054;9.348;2022-10-16T19:06:08;13.93;;;6.30;;
20931;SDS011;10625;49.054;9.348;2022-10-16T19:08:36;11.37;;;5.50;;
20931;SDS011;10625;49.054;9.348;2022-10-16T19:11:07;13.70;;;6.80;;
20931;SDS011;10625;49.054;9.348;2022-10-16T19:13:35;18.43;;;6.20;;
20931;SDS011;10625;49.054;9.348;2022-10-16T19:16:03;14.53;;;6.30;;
20931;SDS011;10625;49.054;9.348;2022-10-16T19:18:31;11.70;;;4.23;;
20931;SDS011;10625;49.054;9.348;2022-10-16T19:21:08;16.57;;;5.90;;
20931;SDS011;10625;49.054;9.348;2022-10-16T19:23:32;14.40;;;6.47;;
20931;SDS011;10625;49.054;9.348;2022-10-16T19:26:06;9.83;;;4.63;;
20931;SDS011;10625;49.054;9.348;2022-10-16T19:28:34;17.80;;;6.57;;
20931;SDS011;10625;49.054;9.348;2022-10-16T19:31:03;7.20;;;5.23;;
20931;SDS011;10625;49.054;9.348;2022-10-16T19:33:30;20.53;;;6.73;;
20931;SDS011;10625;49.054;9.348;2022-10-16T19:36:11;10.57;;;4.23;;
20931;SDS011;10625;49.054;9.348;2022-10-16T19:38:39;10.53;;;4.50;;
20931;SDS011;10625;49.054;9.348;2022-10-16T19:41:07;20.53;;;7.20;;
20931;SDS011;10625;49.054;9.348;2022-10-16T19:43:35;8.40;;;4.47;;
20931;SDS011;10625;49.054;9.348;2022-10-16T19:46:03;12.03;;;5.90;;
20931;SDS011;10625;49.054;9.348;2022-10-16T19:48:31;7.60;;;4.17;;
20931;SDS011;10625;49.054;9.348;2022-10-16T19:50:58;8.80;;;4.20;;
20931;SDS011;10625;49.054;9.348;2022-10-16T19:53:25;14.47;;;5.63;;
20931;SDS011;10625;49.054;9.348;2022-10-16T19:55:55;15.80;;;5.53;;
20931;SDS011;10625;49.054;9.348;2022-10-16T19:58:23;10.97;;;4.57;;
20931;SDS011;10625;49.054;9.348;2022-10-16T20:00:50;17.40;;;6.27;;
20931;SDS011;10625;49.054;9.348;2022-10-16T20:03:19;20.23;;;5.80;;
20931;SDS011;10625;49.054;9.348;2022-10-16T20:05:55;17.60;;;5.77;;
20931;SDS011;10625;49.054;9.348;2022-10-16T20:08:19;10.70;;;5.37;;
20931;SDS011;10625;49.054;9.348;2022-10-16T20:10:47;10.67;;;5.07;;
20931;SDS011;10625;49.054;9.348;2022-10-16T20:13:14;12.03;;;5.60;;
20931;SDS011;10625;49.054;9.348;2022-10-16T20:15:41;11.30;;;3.63;;
20931;SDS011;10625;49.054;9.348;2022-10-16T20:18:09;13.33;;;6.73;;
20931;SDS011;10625;49.054;9.348;2022-10-16T20:20:40;13.37;;;6.50;;
20931;SDS011;10625;49.054;9.348;2022-10-16T20:23:07;15.90;;;5.80;;
20931;SDS011;10625;49.054;9.348;2022-10-16T20:25:38;18.20;;;6.43;;
20931;SDS011;10625;49.054;9.348;2022-10-16T20:28:06;22.10;;;6.77;;
20931;SDS011;10625;49.054;9.348;2022-10-16T20:30:35;17.07;;;7.10;;
20931;SDS011;10625;49.054;9.348;2022-10-16T20:33:02;18.17;;;6.10;;
20931;SDS011;10625;49.054;9.348;2022-10-16T20:35:34;11.77;;;5.20;;
20931;SDS011;10625;49.054;9.348;2022-10-16T20:37:58;16.93;;;7.33;;
20931;SDS011;10625;49.054;9.348;2022-10-16T20:40:25;8.37;;;5.07;;
20931;SDS011;10625;49.054;9.348;2022-10-16T20:42:53;16.03;;;6.63;;
20931;SDS011;10625;49.054;9.348;2022-10-16T20:45:20;16.27;;;6.97;;
20931;SDS011;10625;49.054;9.348;2022-10-16T20:47:47;14.10;;;5.97;;
20931;SDS011;10625;49.054;9.348;2022-10-16T20:50:14;12.87;;;6.50;;
20931;SDS011;10625;49.054;9.348;2022-10-16T20:53:28;7.73;;;4.63;;
20931;SDS011;10625;49.054;9.348;2022-10-16T20:55:55;15.77;;;5.20;;
20931;SDS011;10625;49.054;9.348;2022-10-16T20:58:22;11.87;;;5.23;;
20931;SDS011;10625;49.054;9.348;2022-10-16T21:00:49;13.23;;;6.23;;
20931;SDS011;10625;49.054;9.348;2022-10-16T21:03:17;8.37;;;3.60;;
20931;SDS011;10625;49.054;9.348;2022-10-16T21:05:44;18.77;;;6.17;;
20931;SDS011;10625;49.054;9.348;2022-10-16T21:08:11;13.10;;;5.83;;
20931;SDS011;10625;49.054;9.348;2022-10-16T21:10:38;10.20;;;3.90;;
20931;SDS011;10625;49.054;9.348;2022-10-16T21:13:06;17.73;;;6.40;;
20931;SDS011;10625;49.054;9.348;2022-10-16T21:15:33;13.83;;;7.13;;
20931;SDS011;10625;49.054;9.348;2022-10-16T21:18:02;15.40;;;7.27;;
20931;SDS011;10625;49.054;9.348;2022-10-16T21:20:29;12.67;;;5.57;;
20931;SDS011;10625;49.054;9.348;2022-10-16T21:22:57;13.37;;;6.70;;
20931;SDS011;10625;49.054;9.348;2022-10-16T21:25:24;14.47;;;5.00;;
20931;SDS011;10625;49.054;9.348;2022-10-16T21:27:51;8.73;;;5.37;;
20931;SDS011;10625;49.054;9.348;2022-10-16T21:30:18;13.40;;;6.40;;
20931;SDS011;10625;49.054;9.348;2022-10-16T21:32:46;17.03;;;5.20;;
20931;SDS011;10625;49.054;9.348;2022-10-16T21:35:13;6.90;;;2.93;;
20931;SDS011;10625;49.054;9.348;2022-10-16T21:37:47;16.17;;;6.00;;
20931;SDS011;10625;49.054;9.348;2022-10-16T21:40:12;12.47;;;6.20;;
20931;SDS011;10625;49.054;9.348;2022-10-16T21:42:39;14.40;;;6.40;;
20931;SDS011;10625;49.054;9.348;2022-10-16T21:45:06;15.03;;;4.47;;
20931;SDS011;10625;49.054;9.348;2022-10-16T21:47:34;13.30;;;6.03;;
20931;SDS011;10625;49.054;9.348;2022-10-16T21:50:01;10.30;;;5.37;;
20931;SDS011;10625;49.054;9.348;2022-10-16T21:52:28;9.30;;;4.90;;
20931;SDS011;10625;49.054;9.348;2022-10-16T21:54:55;14.77;;;6.00;;
20931;SDS011;10625;49.054;9.348;2022-10-16T21:57:23;12.03;;;4.63;;
20931;SDS011;10625;49.054;9.348;2022-10-16T21:59:50;13.53;;;6.10;;
20931;SDS011;10625;49.054;9.348;2022-10-16T22:02:17;20.23;;;5.77;;
20931;SDS011;10625;49.054;9.348;2022-10-16T22:04:44;10.93;;;5.93;;
20931;SDS011;10625;49.054;9.348;2022-10-16T22:07:12;10.97;;;5.07;;
20931;SDS011;10625;49.054;9.348;2022-10-16T22:09:39;9.80;;;4.03;;